sensor_id;sensor_type;location;lat;lon;timestamp;pressure;altitude;pressure_sealevel;temperature;humidity
55289;BME280;41154;45.394;5.734;2023-07-24T00:02:18;96445.06;;;21.50;100.00
55289;BME280;41154;45.394;5.734;2023-07-24T00:04:43;96440.84;;;21.74;100.00
55289;BME280;41154;45.394;5.734;2023-07-24T00:07:11;96444.69;;;21.73;100.00
55289;BME280;41154;45.394;5.734;2023-07-24T00:09:37;96438.31;;;21.48;100.00
55289;BME280;41154;45.394;5.734;2023-07-24T00:12:02;96436.72;;;21.47;100.00
55289;BME280;41154;45.394;5.734;2023-07-24T00:14:28;96432.84;;;21.69;100.00
55289;BME280;41154;45.394;5.734;2023-07-24T00:16:53;96433.84;;;21.64;100.00
55289;BME280;41154;45.394;5.734;2023-07-24T00:19:19;96427.94;;;21.62;100.00
55289;BME280;41154;45.394;5.734;2023-07-24T00:21:45;96433.31;;;21.71;100.00
55289;BME280;41154;45.394;5.734;2023-07-24T00:24:11;96445.69;;;21.68;100.00
55289;BME280;41154;45.394;5.734;2023-07-24T00:26:36;96446.31;;;21.53;100.00
55289;BME280;41154;45.394;5.734;2023-07-24T00:29:02;96438.22;;;21.78;100.00
55289;BME280;41154;45.394;5.734;2023-07-24T00:31:27;96444.16;;;21.92;100.00
55289;BME280;41154;45.394;5.734;2023-07-24T00:33:53;96442.13;;;21.56;100.00
55289;BME280;41154;45.394;5.734;2023-07-24T00:36:19;96431.16;;;21.77;100.00
55289;BME280;41154;45.394;5.734;2023-07-24T00:38:44;96433.72;;;21.61;100.00
55289;BME280;41154;45.394;5.734;2023-07-24T00:41:10;96424.91;;;21.76;100.00
55289;BME280;41154;45.394;5.734;2023-07-24T00:43:35;96413.63;;;21.65;100.00
55289;BME280;41154;45.394;5.734;2023-07-24T00:46:01;96417.63;;;21.68;100.00
55289;BME280;41154;45.394;5.734;2023-07-24T00:48:27;96418.75;;;21.67;100.00
55289;BME280;41154;45.394;5.734;2023-07-24T00:50:53;96408.00;;;21.49;100.00
55289;BME280;41154;45.394;5.734;2023-07-24T00:53:19;96392.34;;;21.59;100.00
55289;BME280;41154;45.394;5.734;2023-07-24T00:55:45;96387.88;;;21.54;100.00
55289;BME280;41154;45.394;5.734;2023-07-24T00:58:11;96380.22;;;21.47;100.00
55289;BME280;41154;45.394;5.734;2023-07-24T01:00:37;96376.56;;;21.43;100.00
55289;BME280;41154;45.394;5.734;2023-07-24T01:03:03;96364.34;;;21.28;100.00
55289;BME280;41154;45.394;5.734;2023-07-24T01:05:29;96358.03;;;21.15;100.00
55289;BME280;41154;45.394;5.734;2023-07-24T01:07:55;96339.00;;;21.28;100.00
55289;BME280;41154;45.394;5.734;2023-07-24T01:10:21;96331.53;;;21.04;100.00
55289;BME280;41154;45.394;5.734;2023-07-24T01:15:45;96325.63;;;20.80;100.00
55289;BME280;41154;45.394;5.734;2023-07-24T01:18:13;96326.13;;;20.53;100.00
55289;BME280;41154;45.394;5.734;2023-07-24T01:20:45;96325.16;;;20.78;100.00
55289;BME280;41154;45.394;5.734;2023-07-24T01:23:18;96331.81;;;20.90;100.00
55289;BME280;41154;45.394;5.734;2023-07-24T01:25:57;96320.47;;;21.00;100.00
55289;BME280;41154;45.394;5.734;2023-07-24T01:28:24;96321.19;;;21.09;100.00
55289;BME280;41154;45.394;5.734;2023-07-24T01:30:50;96324.34;;;21.32;100.00
55289;BME280;41154;45.394;5.734;2023-07-24T01:33:17;96324.59;;;21.06;100.00
55289;BME280;41154;45.394;5.734;2023-07-24T01:35:45;96332.72;;;21.15;100.00
55289;BME280;41154;45.394;5.734;2023-07-24T01:38:15;96332.78;;;21.06;100.00
55289;BME280;41154;45.394;5.734;2023-07-24T01:40:42;96324.47;;;21.03;100.00
55289;BME280;41154;45.394;5.734;2023-07-24T01:43:08;96309.38;;;21.05;100.00
55289;BME280;41154;45.394;5.734;2023-07-24T01:45:33;96298.06;;;21.49;100.00
55289;BME280;41154;45.394;5.734;2023-07-24T01:47:59;96315.84;;;21.34;100.00
55289;BME280;41154;45.394;5.734;2023-07-24T01:50:26;96343.34;;;21.29;100.00
55289;BME280;41154;45.394;5.734;2023-07-24T01:52:52;96547.25;;;21.32;100.00
55289;BME280;41154;45.394;5.734;2023-07-24T01:55:17;96677.34;;;21.40;100.00
55289;BME280;41154;45.394;5.734;2023-07-24T01:57:43;96703.88;;;21.69;100.00
55289;BME280;41154;45.394;5.734;2023-07-24T02:00:10;96740.13;;;22.08;100.00
55289;BME280;41154;45.394;5.734;2023-07-24T02:02:36;96751.56;;;22.32;100.00
55289;BME280;41154;45.394;5.734;2023-07-24T02:05:03;96772.31;;;22.24;100.00
55289;BME280;41154;45.394;5.734;2023-07-24T02:07:29;96801.75;;;22.18;100.00
55289;BME280;41154;45.394;5.734;2023-07-24T02:09:54;96759.00;;;21.93;100.00
55289;BME280;41154;45.394;5.734;2023-07-24T02:12:20;96607.63;;;22.02;100.00
55289;BME280;41154;45.394;5.734;2023-07-24T02:14:45;96490.75;;;21.75;100.00
55289;BME280;41154;45.394;5.734;2023-07-24T02:17:15;96539.88;;;21.32;100.00
55289;BME280;41154;45.394;5.734;2023-07-24T02:19:41;96522.25;;;21.00;100.00
55289;BME280;41154;45.394;5.734;2023-07-24T02:22:06;96493.56;;;20.94;100.00
55289;BME280;41154;45.394;5.734;2023-07-24T02:24:34;96513.06;;;20.83;100.00
55289;BME280;41154;45.394;5.734;2023-07-24T02:27:00;96494.13;;;20.78;100.00
55289;BME280;41154;45.394;5.734;2023-07-24T02:29:26;96464.81;;;20.75;100.00
55289;BME280;41154;45.394;5.734;2023-07-24T02:31:52;96444.47;;;20.73;100.00
55289;BME280;41154;45.394;5.734;2023-07-24T02:34:19;96427.97;;;20.99;100.00
55289;BME280;41154;45.394;5.734;2023-07-24T02:36:49;96420.28;;;20.92;100.00
55289;BME280;41154;45.394;5.734;2023-07-24T02:39:15;96415.38;;;20.86;100.00
55289;BME280;41154;45.394;5.734;2023-07-24T02:41:40;96423.34;;;20.91;100.00
55289;BME280;41154;45.394;5.734;2023-07-24T02:44:06;96433.06;;;20.79;100.00
55289;BME280;41154;45.394;5.734;2023-07-24T02:46:31;96428.84;;;20.52;100.00
55289;BME280;41154;45.394;5.734;2023-07-24T02:48:57;96447.16;;;20.43;100.00
55289;BME280;41154;45.394;5.734;2023-07-24T02:51:23;96458.09;;;20.34;100.00
55289;BME280;41154;45.394;5.734;2023-07-24T02:53:48;96466.34;;;20.17;100.00
55289;BME280;41154;45.394;5.734;2023-07-24T02:56:14;96460.44;;;20.06;100.00
55289;BME280;41154;45.394;5.734;2023-07-24T02:58:40;96467.50;;;19.98;100.00
55289;BME280;41154;45.394;5.734;2023-07-24T03:01:06;96460.31;;;19.93;100.00
55289;BME280;41154;45.394;5.734;2023-07-24T03:03:32;96449.38;;;20.02;100.00
55289;BME280;41154;45.394;5.734;2023-07-24T03:05:57;96452.16;;;19.93;100.00
55289;BME280;41154;45.394;5.734;2023-07-24T03:08:23;96438.22;;;19.95;100.00
55289;BME280;41154;45.394;5.734;2023-07-24T03:10:49;96438.34;;;19.99;100.00
55289;BME280;41154;45.394;5.734;2023-07-24T03:13:15;96432.13;;;19.98;100.00
55289;BME280;41154;45.394;5.734;2023-07-24T03:15:40;96433.59;;;19.87;100.00
55289;BME280;41154;45.394;5.734;2023-07-24T03:18:06;96430.69;;;19.83;100.00
55289;BME280;41154;45.394;5.734;2023-07-24T03:20:32;96415.47;;;19.91;100.00
55289;BME280;41154;45.394;5.734;2023-07-24T03:22:58;96413.44;;;19.62;100.00
55289;BME280;41154;45.394;5.734;2023-07-24T03:25:24;96416.31;;;19.56;100.00
55289;BME280;41154;45.394;5.734;2023-07-24T03:27:49;96412.50;;;19.57;100.00
55289;BME280;41154;45.394;5.734;2023-07-24T03:30:15;96404.28;;;19.66;100.00
55289;BME280;41154;45.394;5.734;2023-07-24T03:32:42;96412.50;;;19.57;100.00
55289;BME280;41154;45.394;5.734;2023-07-24T03:35:08;96417.13;;;19.57;100.00
55289;BME280;41154;45.394;5.734;2023-07-24T03:37:36;96425.94;;;19.45;100.00
55289;BME280;41154;45.394;5.734;2023-07-24T03:40:02;96434.28;;;19.40;100.00
55289;BME280;41154;45.394;5.734;2023-07-24T03:42:30;96435.03;;;19.49;100.00
55289;BME280;41154;45.394;5.734;2023-07-24T03:44:56;96452.34;;;19.45;100.00
55289;BME280;41154;45.394;5.734;2023-07-24T03:47:22;96453.94;;;19.28;100.00
55289;BME280;41154;45.394;5.734;2023-07-24T03:49:48;96459.06;;;19.30;100.00
55289;BME280;41154;45.394;5.734;2023-07-24T03:52:14;96447.88;;;19.40;100.00
55289;BME280;41154;45.394;5.734;2023-07-24T03:54:39;96438.56;;;19.41;100.00
55289;BME280;41154;45.394;5.734;2023-07-24T03:57:05;96419.56;;;19.24;100.00
55289;BME280;41154;45.394;5.734;2023-07-24T03:59:32;96397.34;;;19.21;100.00
55289;BME280;41154;45.394;5.734;2023-07-24T04:01:57;96383.41;;;19.32;100.00
55289;BME280;41154;45.394;5.734;2023-07-24T04:04:24;96367.22;;;19.53;100.00
55289;BME280;41154;45.394;5.734;2023-07-24T04:06:49;96364.91;;;19.72;100.00
55289;BME280;41154;45.394;5.734;2023-07-24T04:09:15;96365.06;;;19.76;100.00
55289;BME280;41154;45.394;5.734;2023-07-24T04:11:42;96364.16;;;19.54;100.00
55289;BME280;41154;45.394;5.734;2023-07-24T04:14:09;96352.78;;;19.52;100.00
55289;BME280;41154;45.394;5.734;2023-07-24T04:16:34;96328.47;;;19.56;100.00
55289;BME280;41154;45.394;5.734;2023-07-24T04:19:00;96318.03;;;19.11;100.00
55289;BME280;41154;45.394;5.734;2023-07-24T04:21:25;96345.22;;;19.11;100.00
55289;BME280;41154;45.394;5.734;2023-07-24T04:23:51;96349.81;;;19.10;100.00
55289;BME280;41154;45.394;5.734;2023-07-24T04:26:18;96353.03;;;19.03;100.00
55289;BME280;41154;45.394;5.734;2023-07-24T04:28:43;96405.63;;;18.99;100.00
55289;BME280;41154;45.394;5.734;2023-07-24T04:31:09;96454.56;;;18.99;100.00
55289;BME280;41154;45.394;5.734;2023-07-24T04:33:34;96479.69;;;19.04;100.00
55289;BME280;41154;45.394;5.734;2023-07-24T04:36:00;96484.00;;;19.14;100.00
55289;BME280;41154;45.394;5.734;2023-07-24T04:38:26;96498.06;;;19.16;100.00
55289;BME280;41154;45.394;5.734;2023-07-24T04:40:53;96501.25;;;19.10;100.00
55289;BME280;41154;45.394;5.734;2023-07-24T04:43:18;96457.78;;;19.45;100.00
55289;BME280;41154;45.394;5.734;2023-07-24T04:45:44;96438.59;;;19.50;100.00
55289;BME280;41154;45.394;5.734;2023-07-24T04:48:10;96456.19;;;19.44;100.00
55289;BME280;41154;45.394;5.734;2023-07-24T04:50:37;96452.34;;;19.36;100.00
55289;BME280;41154;45.394;5.734;2023-07-24T04:53:02;96450.59;;;19.40;100.00
55289;BME280;41154;45.394;5.734;2023-07-24T04:55:28;96448.84;;;19.35;100.00
55289;BME280;41154;45.394;5.734;2023-07-24T04:57:53;96475.22;;;19.35;100.00
55289;BME280;41154;45.394;5.734;2023-07-24T05:00:19;96493.00;;;19.32;100.00
55289;BME280;41154;45.394;5.734;2023-07-24T05:02:44;96526.53;;;19.10;100.00
55289;BME280;41154;45.394;5.734;2023-07-24T05:05:10;96542.19;;;19.04;100.00
55289;BME280;41154;45.394;5.734;2023-07-24T05:07:35;96554.84;;;19.18;100.00
55289;BME280;41154;45.394;5.734;2023-07-24T05:10:01;96576.91;;;19.16;100.00
55289;BME280;41154;45.394;5.734;2023-07-24T05:12:27;96600.25;;;19.09;100.00
55289;BME280;41154;45.394;5.734;2023-07-24T05:14:53;96605.41;;;19.19;100.00
55289;BME280;41154;45.394;5.734;2023-07-24T05:17:20;96621.88;;;19.14;100.00
55289;BME280;41154;45.394;5.734;2023-07-24T05:19:45;96618.09;;;19.32;100.00
55289;BME280;41154;45.394;5.734;2023-07-24T05:22:10;96609.63;;;19.51;100.00
55289;BME280;41154;45.394;5.734;2023-07-24T05:24:36;96582.94;;;19.62;100.00
55289;BME280;41154;45.394;5.734;2023-07-24T05:27:03;96559.38;;;19.66;100.00
55289;BME280;41154;45.394;5.734;2023-07-24T05:29:28;96569.00;;;19.46;100.00
55289;BME280;41154;45.394;5.734;2023-07-24T05:31:54;96514.25;;;19.30;100.00
55289;BME280;41154;45.394;5.734;2023-07-24T05:34:19;96524.47;;;19.16;100.00
55289;BME280;41154;45.394;5.734;2023-07-24T05:36:45;96491.03;;;19.07;100.00
55289;BME280;41154;45.394;5.734;2023-07-24T05:39:10;96459.06;;;19.21;100.00
55289;BME280;41154;45.394;5.734;2023-07-24T05:41:36;96428.97;;;18.91;100.00
55289;BME280;41154;45.394;5.734;2023-07-24T05:44:01;96426.75;;;19.28;100.00
55289;BME280;41154;45.394;5.734;2023-07-24T05:46:27;96416.69;;;19.20;100.00
55289;BME280;41154;45.394;5.734;2023-07-24T05:48:53;96428.34;;;19.12;100.00
55289;BME280;41154;45.394;5.734;2023-07-24T05:51:21;96393.97;;;19.25;100.00
55289;BME280;41154;45.394;5.734;2023-07-24T05:53:46;96389.63;;;19.15;100.00
55289;BME280;41154;45.394;5.734;2023-07-24T05:56:12;96420.97;;;19.21;100.00
55289;BME280;41154;45.394;5.734;2023-07-24T05:58:38;96409.00;;;19.22;100.00
55289;BME280;41154;45.394;5.734;2023-07-24T06:01:04;96383.72;;;19.39;100.00
55289;BME280;41154;45.394;5.734;2023-07-24T06:03:29;96350.63;;;19.02;100.00
55289;BME280;41154;45.394;5.734;2023-07-24T06:05:55;96348.88;;;19.06;100.00
55289;BME280;41154;45.394;5.734;2023-07-24T06:08:21;96350.00;;;19.05;100.00
55289;BME280;41154;45.394;5.734;2023-07-24T06:10:47;96345.66;;;19.04;100.00
55289;BME280;41154;45.394;5.734;2023-07-24T06:13:14;96329.22;;;19.00;100.00
55289;BME280;41154;45.394;5.734;2023-07-24T06:15:40;96329.81;;;19.32;100.00
55289;BME280;41154;45.394;5.734;2023-07-24T06:18:05;96315.25;;;19.28;100.00
55289;BME280;41154;45.394;5.734;2023-07-24T06:20:31;96327.00;;;19.58;100.00
55289;BME280;41154;45.394;5.734;2023-07-24T06:22:56;96341.31;;;19.94;100.00
55289;BME280;41154;45.394;5.734;2023-07-24T06:25:22;96325.81;;;20.24;100.00
55289;BME280;41154;45.394;5.734;2023-07-24T06:27:48;96295.91;;;20.16;100.00
55289;BME280;41154;45.394;5.734;2023-07-24T06:30:13;96287.09;;;21.03;100.00
55289;BME280;41154;45.394;5.734;2023-07-24T06:32:38;96291.22;;;19.95;100.00
55289;BME280;41154;45.394;5.734;2023-07-24T06:35:06;96287.94;;;20.10;100.00
55289;BME280;41154;45.394;5.734;2023-07-24T06:37:31;96322.28;;;19.94;100.00
55289;BME280;41154;45.394;5.734;2023-07-24T06:39:57;96311.19;;;21.80;100.00
55289;BME280;41154;45.394;5.734;2023-07-24T06:42:22;96320.53;;;21.12;100.00
55289;BME280;41154;45.394;5.734;2023-07-24T06:44:48;96320.03;;;20.98;100.00
55289;BME280;41154;45.394;5.734;2023-07-24T06:47:15;96325.34;;;20.73;100.00
55289;BME280;41154;45.394;5.734;2023-07-24T06:49:41;96331.03;;;21.23;100.00
55289;BME280;41154;45.394;5.734;2023-07-24T06:52:07;96329.91;;;21.57;100.00
55289;BME280;41154;45.394;5.734;2023-07-24T06:54:32;96342.66;;;21.65;100.00
55289;BME280;41154;45.394;5.734;2023-07-24T06:56:58;96340.41;;;21.13;100.00
55289;BME280;41154;45.394;5.734;2023-07-24T06:59:24;96374.47;;;20.86;100.00
55289;BME280;41154;45.394;5.734;2023-07-24T07:01:49;96406.16;;;20.39;100.00
55289;BME280;41154;45.394;5.734;2023-07-24T07:04:15;96409.97;;;20.47;100.00
55289;BME280;41154;45.394;5.734;2023-07-24T07:06:41;96410.13;;;20.51;100.00
55289;BME280;41154;45.394;5.734;2023-07-24T07:09:06;96453.41;;;21.03;100.00
55289;BME280;41154;45.394;5.734;2023-07-24T07:11:32;96421.34;;;22.09;100.00
55289;BME280;41154;45.394;5.734;2023-07-24T07:13:58;96478.88;;;21.92;100.00
55289;BME280;41154;45.394;5.734;2023-07-24T07:16:24;96490.97;;;21.27;100.00
55289;BME280;41154;45.394;5.734;2023-07-24T07:18:49;96480.34;;;21.05;100.00
55289;BME280;41154;45.394;5.734;2023-07-24T07:21:15;96482.63;;;20.64;100.00
55289;BME280;41154;45.394;5.734;2023-07-24T07:23:40;96483.22;;;21.08;100.00
55289;BME280;41154;45.394;5.734;2023-07-24T07:26:06;96491.19;;;20.54;100.00
55289;BME280;41154;45.394;5.734;2023-07-24T07:28:32;96482.16;;;20.32;100.00
55289;BME280;41154;45.394;5.734;2023-07-24T07:30:57;96482.97;;;20.71;100.00
55289;BME280;41154;45.394;5.734;2023-07-24T07:33:24;96501.91;;;20.59;100.00
55289;BME280;41154;45.394;5.734;2023-07-24T07:35:50;96531.78;;;20.38;100.00
55289;BME280;41154;45.394;5.734;2023-07-24T07:38:16;96483.38;;;20.43;100.00
55289;BME280;41154;45.394;5.734;2023-07-24T07:40:41;96449.06;;;20.81;100.00
55289;BME280;41154;45.394;5.734;2023-07-24T07:43:08;96451.88;;;20.63;100.00
55289;BME280;41154;45.394;5.734;2023-07-24T07:45:34;96432.75;;;20.72;100.00
55289;BME280;41154;45.394;5.734;2023-07-24T07:48:00;96418.28;;;21.65;100.00
55289;BME280;41154;45.394;5.734;2023-07-24T07:50:25;96409.63;;;22.08;100.00
55289;BME280;41154;45.394;5.734;2023-07-24T07:52:51;96401.69;;;22.40;100.00
55289;BME280;41154;45.394;5.734;2023-07-24T07:55:18;96384.03;;;22.13;100.00
55289;BME280;41154;45.394;5.734;2023-07-24T07:57:44;96371.75;;;22.44;100.00
55289;BME280;41154;45.394;5.734;2023-07-24T08:00:10;96370.47;;;22.66;100.00
55289;BME280;41154;45.394;5.734;2023-07-24T08:02:35;96368.25;;;23.65;100.00
55289;BME280;41154;45.394;5.734;2023-07-24T08:05:05;96356.88;;;23.51;100.00
55289;BME280;41154;45.394;5.734;2023-07-24T08:07:31;96355.53;;;25.08;100.00
55289;BME280;41154;45.394;5.734;2023-07-24T08:09:57;96348.78;;;25.41;100.00
55289;BME280;41154;45.394;5.734;2023-07-24T08:12:22;96347.91;;;22.82;100.00
55289;BME280;41154;45.394;5.734;2023-07-24T08:14:48;96344.63;;;22.14;100.00
55289;BME280;41154;45.394;5.734;2023-07-24T08:17:14;96334.03;;;22.62;100.00
55289;BME280;41154;45.394;5.734;2023-07-24T08:19:39;96320.13;;;22.67;100.00
55289;BME280;41154;45.394;5.734;2023-07-24T08:22:05;96318.44;;;21.76;100.00
55289;BME280;41154;45.394;5.734;2023-07-24T08:24:33;96310.81;;;21.69;100.00
55289;BME280;41154;45.394;5.734;2023-07-24T08:26:59;96319.25;;;22.01;100.00
55289;BME280;41154;45.394;5.734;2023-07-24T08:32:09;96318.44;;;21.64;100.00
55289;BME280;41154;45.394;5.734;2023-07-24T08:34:34;96312.44;;;21.37;100.00
55289;BME280;41154;45.394;5.734;2023-07-24T08:40:03;96330.84;;;21.40;100.00
55289;BME280;41154;45.394;5.734;2023-07-24T08:42:29;96354.47;;;21.03;100.00
55289;BME280;41154;45.394;5.734;2023-07-24T08:45:08;96349.34;;;21.01;100.00
55289;BME280;41154;45.394;5.734;2023-07-24T08:47:36;96367.09;;;21.07;100.00
55289;BME280;41154;45.394;5.734;2023-07-24T08:50:02;96379.47;;;21.05;100.00
55289;BME280;41154;45.394;5.734;2023-07-24T08:52:27;96368.78;;;20.99;100.00
55289;BME280;41154;45.394;5.734;2023-07-24T08:54:53;96357.00;;;20.87;100.00
55289;BME280;41154;45.394;5.734;2023-07-24T08:57:20;96354.94;;;20.83;100.00
55289;BME280;41154;45.394;5.734;2023-07-24T08:59:46;96356.13;;;20.95;100.00
55289;BME280;41154;45.394;5.734;2023-07-24T09:02:11;96339.56;;;21.00;100.00
55289;BME280;41154;45.394;5.734;2023-07-24T09:04:37;96334.66;;;20.93;100.00
55289;BME280;41154;45.394;5.734;2023-07-24T09:07:03;96351.41;;;20.83;100.00
55289;BME280;41154;45.394;5.734;2023-07-24T09:09:29;96352.16;;;20.71;100.00
55289;BME280;41154;45.394;5.734;2023-07-24T09:11:56;96341.16;;;20.80;100.00
55289;BME280;41154;45.394;5.734;2023-07-24T09:17:33;96389.31;;;20.76;100.00
55289;BME280;41154;45.394;5.734;2023-07-24T09:19:59;96500.22;;;20.84;100.00
55289;BME280;41154;45.394;5.734;2023-07-24T09:22:25;96606.09;;;20.56;100.00
55289;BME280;41154;45.394;5.734;2023-07-24T09:24:52;96564.19;;;20.22;100.00
55289;BME280;41154;45.394;5.734;2023-07-24T09:27:18;96395.94;;;20.66;100.00
55289;BME280;41154;45.394;5.734;2023-07-24T09:29:44;96427.69;;;20.92;100.00
55289;BME280;41154;45.394;5.734;2023-07-24T09:32:20;96449.78;;;21.96;100.00
55289;BME280;41154;45.394;5.734;2023-07-24T09:34:48;96479.41;;;22.18;100.00
55289;BME280;41154;45.394;5.734;2023-07-24T09:37:23;96458.53;;;22.47;100.00
55289;BME280;41154;45.394;5.734;2023-07-24T09:42:43;96437.25;;;23.30;100.00
55289;BME280;41154;45.394;5.734;2023-07-24T09:45:09;96427.75;;;22.75;100.00
55289;BME280;41154;45.394;5.734;2023-07-24T09:54:24;96437.09;;;23.11;100.00
55289;BME280;41154;45.394;5.734;2023-07-24T09:56:51;96432.41;;;23.11;100.00
55289;BME280;41154;45.394;5.734;2023-07-24T09:59:18;96429.75;;;23.27;100.00
55289;BME280;41154;45.394;5.734;2023-07-24T10:01:44;96434.22;;;24.04;100.00
55289;BME280;41154;45.394;5.734;2023-07-24T10:07:06;96431.66;;;24.75;100.00
55289;BME280;41154;45.394;5.734;2023-07-24T10:09:32;96417.16;;;24.43;100.00
55289;BME280;41154;45.394;5.734;2023-07-24T10:11:58;96421.75;;;24.23;100.00
55289;BME280;41154;45.394;5.734;2023-07-24T10:14:24;96420.81;;;24.31;100.00
55289;BME280;41154;45.394;5.734;2023-07-24T10:16:50;96411.31;;;24.45;100.00
55289;BME280;41154;45.394;5.734;2023-07-24T10:22:55;96418.81;;;26.63;100.00
55289;BME280;41154;45.394;5.734;2023-07-24T10:25:28;96412.59;;;27.53;97.76
55289;BME280;41154;45.394;5.734;2023-07-24T10:33:44;96412.34;;;25.62;100.00
55289;BME280;41154;45.394;5.734;2023-07-24T10:36:10;96402.38;;;25.35;100.00
55289;BME280;41154;45.394;5.734;2023-07-24T10:38:40;96396.78;;;24.92;100.00
55289;BME280;41154;45.394;5.734;2023-07-24T10:41:06;96400.19;;;26.76;98.11
55289;BME280;41154;45.394;5.734;2023-07-24T10:43:43;96403.69;;;27.03;97.79
55289;BME280;41154;45.394;5.734;2023-07-24T10:46:09;96391.59;;;26.81;95.91
55289;BME280;41154;45.394;5.734;2023-07-24T10:48:35;96396.38;;;25.91;100.00
55289;BME280;41154;45.394;5.734;2023-07-24T10:51:06;96389.47;;;26.70;100.00
55289;BME280;41154;45.394;5.734;2023-07-24T10:53:32;96386.63;;;25.12;100.00
55289;BME280;41154;45.394;5.734;2023-07-24T10:55:59;96375.56;;;25.47;100.00
55289;BME280;41154;45.394;5.734;2023-07-24T10:58:25;96377.81;;;26.04;99.89
55289;BME280;41154;45.394;5.734;2023-07-24T11:00:52;96365.16;;;26.23;98.50
55289;BME280;41154;45.394;5.734;2023-07-24T11:03:17;96364.34;;;26.22;100.00
55289;BME280;41154;45.394;5.734;2023-07-24T11:05:45;96346.94;;;27.25;93.04
55289;BME280;41154;45.394;5.734;2023-07-24T11:10:44;96354.06;;;25.96;100.00
55289;BME280;41154;45.394;5.734;2023-07-24T11:13:10;96352.66;;;25.82;96.88
55289;BME280;41154;45.394;5.734;2023-07-24T11:15:35;96346.19;;;25.28;100.00
55289;BME280;41154;45.394;5.734;2023-07-24T11:18:01;96350.53;;;25.72;100.00
55289;BME280;41154;45.394;5.734;2023-07-24T11:20:27;96347.84;;;25.76;100.00
55289;BME280;41154;45.394;5.734;2023-07-24T11:22:53;96341.03;;;26.39;96.98
55289;BME280;41154;45.394;5.734;2023-07-24T11:25:22;96348.84;;;27.51;92.60
55289;BME280;41154;45.394;5.734;2023-07-24T11:27:48;96334.66;;;27.49;91.92
55289;BME280;41154;45.394;5.734;2023-07-24T11:30:19;96328.13;;;27.31;90.92
55289;BME280;41154;45.394;5.734;2023-07-24T11:32:44;96319.28;;;27.14;94.35
55289;BME280;41154;45.394;5.734;2023-07-24T11:35:10;96316.66;;;27.25;93.89
55289;BME280;41154;45.394;5.734;2023-07-24T11:37:36;96315.69;;;26.23;98.69
55289;BME280;41154;45.394;5.734;2023-07-24T11:40:02;96317.94;;;25.94;100.00
55289;BME280;41154;45.394;5.734;2023-07-24T11:42:39;96315.03;;;26.33;98.28
55289;BME280;41154;45.394;5.734;2023-07-24T11:45:05;96314.13;;;26.25;98.64
55289;BME280;41154;45.394;5.734;2023-07-24T11:47:31;96305.13;;;26.28;98.54
55289;BME280;41154;45.394;5.734;2023-07-24T11:50:00;96296.31;;;26.99;94.86
55289;BME280;41154;45.394;5.734;2023-07-24T11:52:25;96290.81;;;26.42;100.00
55289;BME280;41154;45.394;5.734;2023-07-24T11:54:59;96272.94;;;26.55;100.00
55289;BME280;41154;45.394;5.734;2023-07-24T11:57:28;96272.41;;;26.46;98.92
55289;BME280;41154;45.394;5.734;2023-07-24T11:59:54;96259.44;;;26.47;100.00
55289;BME280;41154;45.394;5.734;2023-07-24T12:02:22;96253.94;;;26.47;100.00
55289;BME280;41154;45.394;5.734;2023-07-24T12:04:52;96255.84;;;26.69;99.39
55289;BME280;41154;45.394;5.734;2023-07-24T12:07:18;96253.53;;;26.75;100.00
55289;BME280;41154;45.394;5.734;2023-07-24T12:09:50;96246.06;;;25.92;100.00
55289;BME280;41154;45.394;5.734;2023-07-24T12:12:15;96238.47;;;26.08;100.00
55289;BME280;41154;45.394;5.734;2023-07-24T12:14:43;96232.41;;;26.52;99.65
55289;BME280;41154;45.394;5.734;2023-07-24T12:17:08;96222.38;;;26.98;96.74
55289;BME280;41154;45.394;5.734;2023-07-24T12:19:38;96213.53;;;27.19;94.92
55289;BME280;41154;45.394;5.734;2023-07-24T12:22:03;96210.50;;;26.60;97.14
55289;BME280;41154;45.394;5.734;2023-07-24T12:24:29;96198.19;;;27.18;100.00
55289;BME280;41154;45.394;5.734;2023-07-24T12:26:55;96208.34;;;27.10;98.13
55289;BME280;41154;45.394;5.734;2023-07-24T12:29:20;96200.91;;;27.14;98.87
55289;BME280;41154;45.394;5.734;2023-07-24T12:31:45;96210.00;;;27.59;93.74
55289;BME280;41154;45.394;5.734;2023-07-24T12:34:11;96207.63;;;27.58;98.13
55289;BME280;41154;45.394;5.734;2023-07-24T12:36:37;96220.97;;;28.04;90.58
55289;BME280;41154;45.394;5.734;2023-07-24T12:39:02;96227.53;;;28.51;89.75
55289;BME280;41154;45.394;5.734;2023-07-24T12:41:28;96228.81;;;28.61;95.67
55289;BME280;41154;45.394;5.734;2023-07-24T12:43:53;96229.09;;;28.45;100.00
55289;BME280;41154;45.394;5.734;2023-07-24T12:46:19;96228.41;;;27.96;95.51
55289;BME280;41154;45.394;5.734;2023-07-24T12:48:44;96226.94;;;28.10;98.29
55289;BME280;41154;45.394;5.734;2023-07-24T12:51:10;96212.41;;;27.65;95.65
55289;BME280;41154;45.394;5.734;2023-07-24T12:53:37;96218.31;;;27.67;96.44
55289;BME280;41154;45.394;5.734;2023-07-24T12:56:02;96211.59;;;27.64;99.63
55289;BME280;41154;45.394;5.734;2023-07-24T12:58:28;96204.25;;;27.83;99.45
55289;BME280;41154;45.394;5.734;2023-07-24T13:03:54;96198.66;;;28.24;91.28
55289;BME280;41154;45.394;5.734;2023-07-24T13:06:19;96193.94;;;28.28;92.61
55289;BME280;41154;45.394;5.734;2023-07-24T13:08:45;96194.16;;;28.67;94.14
55289;BME280;41154;45.394;5.734;2023-07-24T13:11:11;96206.09;;;29.15;90.10
55289;BME280;41154;45.394;5.734;2023-07-24T13:13:36;96201.75;;;29.07;89.25
55289;BME280;41154;45.394;5.734;2023-07-24T13:16:02;96196.19;;;28.89;90.21
55289;BME280;41154;45.394;5.734;2023-07-24T13:18:28;96182.81;;;28.91;91.38
55289;BME280;41154;45.394;5.734;2023-07-24T13:20:54;96190.66;;;28.89;91.33
55289;BME280;41154;45.394;5.734;2023-07-24T13:29:46;96181.19;;;28.75;91.72
55289;BME280;41154;45.394;5.734;2023-07-24T13:32:11;96184.28;;;28.66;93.93
55289;BME280;41154;45.394;5.734;2023-07-24T13:37:25;96190.63;;;28.78;93.12